sensor_id;sensor_type;location;lat;lon;timestamp;P1;durP1;ratioP1;P2;durP2;ratioP2
33190;SDS011;19554;42.652;23.364;2022-07-31T00:02:01;17.30;;;12.65;;
33190;SDS011;19554;42.652;23.364;2022-07-31T00:04:27;16.65;;;13.93;;
33190;SDS011;19554;42.652;23.364;2022-07-31T00:06:52;17.35;;;13.60;;
33190;SDS011;19554;42.652;23.364;2022-07-31T00:09:18;14.73;;;12.93;;
33190;SDS011;19554;42.652;23.364;2022-07-31T00:11:44;16.92;;;13.52;;
33190;SDS011;19554;42.652;23.364;2022-07-31T00:14:10;21.45;;;13.93;;
33190;SDS011;19554;42.652;23.364;2022-07-31T00:16:36;21.08;;;14.68;;
33190;SDS011;19554;42.652;23.364;2022-07-31T00:19:01;16.88;;;13.73;;
33190;SDS011;19554;42.652;23.364;2022-07-31T00:21:27;16.25;;;13.43;;
33190;SDS011;19554;42.652;23.364;2022-07-31T00:23:52;14.25;;;12.52;;
33190;SDS011;19554;42.652;23.364;2022-07-31T00:26:18;16.83;;;12.38;;
33190;SDS011;19554;42.652;23.364;2022-07-31T00:28:44;16.73;;;12.32;;
33190;SDS011;19554;42.652;23.364;2022-07-31T00:31:11;17.33;;;12.00;;
33190;SDS011;19554;42.652;23.364;2022-07-31T00:33:37;18.25;;;13.70;;
33190;SDS011;19554;42.652;23.364;2022-07-31T00:36:02;16.05;;;13.32;;
33190;SDS011;19554;42.652;23.364;2022-07-31T00:38:28;15.40;;;13.50;;
33190;SDS011;19554;42.652;23.364;2022-07-31T00:40:53;19.70;;;14.48;;
33190;SDS011;19554;42.652;23.364;2022-07-31T00:43:19;18.63;;;14.02;;
33190;SDS011;19554;42.652;23.364;2022-07-31T00:45:44;15.88;;;13.57;;
33190;SDS011;19554;42.652;23.364;2022-07-31T00:48:10;15.77;;;12.65;;
33190;SDS011;19554;42.652;23.364;2022-07-31T00:50:36;18.30;;;14.90;;
33190;SDS011;19554;42.652;23.364;2022-07-31T00:53:02;17.38;;;13.88;;
33190;SDS011;19554;42.652;23.364;2022-07-31T00:55:29;14.82;;;12.88;;
33190;SDS011;19554;42.652;23.364;2022-07-31T00:57:55;17.90;;;13.27;;
33190;SDS011;19554;42.652;23.364;2022-07-31T01:00:20;16.52;;;11.82;;
33190;SDS011;19554;42.652;23.364;2022-07-31T01:02:47;14.57;;;12.07;;
33190;SDS011;19554;42.652;23.364;2022-07-31T01:05:13;15.23;;;11.73;;
33190;SDS011;19554;42.652;23.364;2022-07-31T01:07:39;12.60;;;10.88;;
33190;SDS011;19554;42.652;23.364;2022-07-31T01:10:05;12.85;;;10.68;;
33190;SDS011;19554;42.652;23.364;2022-07-31T01:12:53;12.55;;;11.25;;
33190;SDS011;19554;42.652;23.364;2022-07-31T01:15:23;15.55;;;11.30;;
33190;SDS011;19554;42.652;23.364;2022-07-31T01:17:50;16.85;;;11.07;;
33190;SDS011;19554;42.652;23.364;2022-07-31T01:20:16;13.77;;;11.10;;
33190;SDS011;19554;42.652;23.364;2022-07-31T01:25:53;13.50;;;11.65;;
33190;SDS011;19554;42.652;23.364;2022-07-31T01:31:08;12.55;;;11.00;;
33190;SDS011;19554;42.652;23.364;2022-07-31T01:33:48;14.88;;;10.35;;
33190;SDS011;19554;42.652;23.364;2022-07-31T01:36:21;14.43;;;11.15;;
33190;SDS011;19554;42.652;23.364;2022-07-31T01:38:51;14.32;;;10.52;;
33190;SDS011;19554;42.652;23.364;2022-07-31T01:41:20;11.48;;;10.35;;
33190;SDS011;19554;42.652;23.364;2022-07-31T01:43:50;12.65;;;10.73;;
33190;SDS011;19554;42.652;23.364;2022-07-31T01:46:19;13.05;;;10.73;;
33190;SDS011;19554;42.652;23.364;2022-07-31T01:48:46;15.18;;;10.48;;
33190;SDS011;19554;42.652;23.364;2022-07-31T01:51:13;11.25;;;10.15;;
33190;SDS011;19554;42.652;23.364;2022-07-31T01:53:42;11.15;;;10.05;;
33190;SDS011;19554;42.652;23.364;2022-07-31T01:56:09;12.15;;;10.38;;
33190;SDS011;19554;42.652;23.364;2022-07-31T01:58:37;12.88;;;9.98;;
33190;SDS011;19554;42.652;23.364;2022-07-31T02:01:04;10.82;;;9.73;;
33190;SDS011;19554;42.652;23.364;2022-07-31T02:03:32;13.40;;;11.18;;
33190;SDS011;19554;42.652;23.364;2022-07-31T02:05:59;14.70;;;10.68;;
33190;SDS011;19554;42.652;23.364;2022-07-31T02:08:26;14.43;;;11.85;;
33190;SDS011;19554;42.652;23.364;2022-07-31T02:10:53;15.13;;;11.65;;
33190;SDS011;19554;42.652;23.364;2022-07-31T02:13:19;16.73;;;11.63;;
33190;SDS011;19554;42.652;23.364;2022-07-31T02:15:47;14.68;;;10.30;;
33190;SDS011;19554;42.652;23.364;2022-07-31T02:18:15;12.15;;;9.63;;
33190;SDS011;19554;42.652;23.364;2022-07-31T02:20:42;16.73;;;10.27;;
33190;SDS011;19554;42.652;23.364;2022-07-31T02:23:10;15.45;;;9.95;;
33190;SDS011;19554;42.652;23.364;2022-07-31T02:25:36;15.43;;;10.60;;
33190;SDS011;19554;42.652;23.364;2022-07-31T02:28:06;17.08;;;10.05;;
33190;SDS011;19554;42.652;23.364;2022-07-31T02:30:34;10.48;;;8.63;;
33190;SDS011;19554;42.652;23.364;2022-07-31T02:33:02;11.70;;;9.60;;
33190;SDS011;19554;42.652;23.364;2022-07-31T02:35:29;17.60;;;10.43;;
33190;SDS011;19554;42.652;23.364;2022-07-31T02:37:55;11.77;;;9.65;;
33190;SDS011;19554;42.652;23.364;2022-07-31T02:40:22;13.50;;;9.00;;
33190;SDS011;19554;42.652;23.364;2022-07-31T02:42:50;13.98;;;9.77;;
33190;SDS011;19554;42.652;23.364;2022-07-31T02:45:16;11.05;;;9.20;;
33190;SDS011;19554;42.652;23.364;2022-07-31T02:47:43;10.63;;;8.80;;
33190;SDS011;19554;42.652;23.364;2022-07-31T02:50:09;10.48;;;9.18;;
33190;SDS011;19554;42.652;23.364;2022-07-31T02:52:35;11.57;;;9.50;;
33190;SDS011;19554;42.652;23.364;2022-07-31T02:55:02;12.55;;;9.05;;
33190;SDS011;19554;42.652;23.364;2022-07-31T02:57:29;12.32;;;9.57;;
33190;SDS011;19554;42.652;23.364;2022-07-31T02:59:54;13.07;;;9.25;;
33190;SDS011;19554;42.652;23.364;2022-07-31T03:02:20;14.48;;;9.00;;
33190;SDS011;19554;42.652;23.364;2022-07-31T03:04:45;10.00;;;8.93;;
33190;SDS011;19554;42.652;23.364;2022-07-31T03:07:11;13.73;;;9.32;;
33190;SDS011;19554;42.652;23.364;2022-07-31T03:09:36;11.85;;;9.50;;
33190;SDS011;19554;42.652;23.364;2022-07-31T03:12:02;13.90;;;9.48;;
33190;SDS011;19554;42.652;23.364;2022-07-31T03:14:28;17.02;;;9.18;;
33190;SDS011;19554;42.652;23.364;2022-07-31T03:16:54;14.63;;;10.73;;
33190;SDS011;19554;42.652;23.364;2022-07-31T03:19:22;12.65;;;10.18;;
33190;SDS011;19554;42.652;23.364;2022-07-31T03:21:48;13.25;;;10.10;;
33190;SDS011;19554;42.652;23.364;2022-07-31T03:24:15;12.50;;;10.23;;
33190;SDS011;19554;42.652;23.364;2022-07-31T03:26:41;17.20;;;10.55;;
33190;SDS011;19554;42.652;23.364;2022-07-31T03:29:07;17.63;;;10.02;;
33190;SDS011;19554;42.652;23.364;2022-07-31T03:31:32;13.35;;;10.55;;
33190;SDS011;19554;42.652;23.364;2022-07-31T03:33:58;16.95;;;11.68;;
33190;SDS011;19554;42.652;23.364;2022-07-31T03:36:24;15.25;;;13.05;;
33190;SDS011;19554;42.652;23.364;2022-07-31T03:38:51;17.63;;;12.60;;
33190;SDS011;19554;42.652;23.364;2022-07-31T03:41:16;17.15;;;12.00;;
33190;SDS011;19554;42.652;23.364;2022-07-31T03:43:42;17.52;;;13.88;;
33190;SDS011;19554;42.652;23.364;2022-07-31T03:46:08;18.25;;;14.25;;
33190;SDS011;19554;42.652;23.364;2022-07-31T03:48:34;20.33;;;13.95;;
33190;SDS011;19554;42.652;23.364;2022-07-31T03:51:00;18.88;;;14.05;;
33190;SDS011;19554;42.652;23.364;2022-07-31T03:53:27;17.90;;;13.23;;
33190;SDS011;19554;42.652;23.364;2022-07-31T03:55:53;14.68;;;13.10;;
33190;SDS011;19554;42.652;23.364;2022-07-31T03:58:19;26.92;;;13.75;;
33190;SDS011;19554;42.652;23.364;2022-07-31T04:00:47;15.85;;;13.90;;
33190;SDS011;19554;42.652;23.364;2022-07-31T04:03:13;16.17;;;14.20;;
33190;SDS011;19554;42.652;23.364;2022-07-31T04:05:39;15.63;;;14.00;;
33190;SDS011;19554;42.652;23.364;2022-07-31T04:08:05;15.18;;;13.25;;
33190;SDS011;19554;42.652;23.364;2022-07-31T04:10:31;14.65;;;13.20;;
33190;SDS011;19554;42.652;23.364;2022-07-31T04:12:58;19.63;;;14.35;;
33190;SDS011;19554;42.652;23.364;2022-07-31T04:15:24;15.52;;;14.00;;
33190;SDS011;19554;42.652;23.364;2022-07-31T04:17:49;16.17;;;14.23;;
33190;SDS011;19554;42.652;23.364;2022-07-31T04:20:15;15.15;;;12.80;;
33190;SDS011;19554;42.652;23.364;2022-07-31T04:22:41;15.48;;;13.00;;
33190;SDS011;19554;42.652;23.364;2022-07-31T04:25:06;20.15;;;14.35;;
33190;SDS011;19554;42.652;23.364;2022-07-31T04:27:35;18.17;;;12.80;;
33190;SDS011;19554;42.652;23.364;2022-07-31T04:30:01;15.07;;;13.27;;
33190;SDS011;19554;42.652;23.364;2022-07-31T04:32:26;16.85;;;13.88;;
33190;SDS011;19554;42.652;23.364;2022-07-31T04:34:52;15.93;;;13.70;;
33190;SDS011;19554;42.652;23.364;2022-07-31T04:37:18;15.98;;;13.48;;
33190;SDS011;19554;42.652;23.364;2022-07-31T04:39:43;17.65;;;13.90;;
33190;SDS011;19554;42.652;23.364;2022-07-31T04:42:09;15.95;;;14.05;;
33190;SDS011;19554;42.652;23.364;2022-07-31T04:44:34;16.08;;;13.45;;
33190;SDS011;19554;42.652;23.364;2022-07-31T04:47:00;24.08;;;13.73;;
33190;SDS011;19554;42.652;23.364;2022-07-31T04:49:27;14.85;;;13.30;;
33190;SDS011;19554;42.652;23.364;2022-07-31T04:51:54;14.88;;;13.20;;
33190;SDS011;19554;42.652;23.364;2022-07-31T04:54:20;17.40;;;13.50;;
33190;SDS011;19554;42.652;23.364;2022-07-31T04:56:45;19.33;;;15.40;;
33190;SDS011;19554;42.652;23.364;2022-07-31T04:59:13;13.98;;;12.40;;
33190;SDS011;19554;42.652;23.364;2022-07-31T05:01:40;14.60;;;12.70;;
33190;SDS011;19554;42.652;23.364;2022-07-31T05:04:06;15.80;;;12.10;;
33190;SDS011;19554;42.652;23.364;2022-07-31T05:09:03;14.07;;;11.80;;
33190;SDS011;19554;42.652;23.364;2022-07-31T05:11:30;14.07;;;12.57;;
33190;SDS011;19554;42.652;23.364;2022-07-31T05:13:58;13.25;;;11.40;;
33190;SDS011;19554;42.652;23.364;2022-07-31T05:16:25;14.27;;;11.45;;
33190;SDS011;19554;42.652;23.364;2022-07-31T05:18:52;11.90;;;10.70;;
33190;SDS011;19554;42.652;23.364;2022-07-31T05:21:17;13.13;;;10.80;;
33190;SDS011;19554;42.652;23.364;2022-07-31T05:23:44;13.30;;;10.43;;
33190;SDS011;19554;42.652;23.364;2022-07-31T05:26:10;11.10;;;9.57;;
33190;SDS011;19554;42.652;23.364;2022-07-31T05:28:37;10.60;;;9.50;;
33190;SDS011;19554;42.652;23.364;2022-07-31T05:31:03;10.32;;;9.32;;
33190;SDS011;19554;42.652;23.364;2022-07-31T05:33:29;10.77;;;9.25;;
33190;SDS011;19554;42.652;23.364;2022-07-31T05:35:55;10.45;;;9.38;;
33190;SDS011;19554;42.652;23.364;2022-07-31T05:38:21;11.07;;;9.35;;
33190;SDS011;19554;42.652;23.364;2022-07-31T05:40:47;11.60;;;9.88;;
33190;SDS011;19554;42.652;23.364;2022-07-31T05:43:12;10.10;;;9.07;;
33190;SDS011;19554;42.652;23.364;2022-07-31T05:45:38;10.98;;;9.02;;
33190;SDS011;19554;42.652;23.364;2022-07-31T05:48:03;10.43;;;8.48;;
33190;SDS011;19554;42.652;23.364;2022-07-31T05:50:29;9.60;;;8.63;;
33190;SDS011;19554;42.652;23.364;2022-07-31T05:52:55;10.13;;;8.85;;
33190;SDS011;19554;42.652;23.364;2022-07-31T05:55:21;9.40;;;8.50;;
33190;SDS011;19554;42.652;23.364;2022-07-31T05:57:46;11.15;;;8.68;;
33190;SDS011;19554;42.652;23.364;2022-07-31T06:00:12;10.43;;;9.32;;
33190;SDS011;19554;42.652;23.364;2022-07-31T06:02:40;10.35;;;9.02;;
33190;SDS011;19554;42.652;23.364;2022-07-31T06:05:06;11.50;;;9.50;;
33190;SDS011;19554;42.652;23.364;2022-07-31T06:07:31;11.68;;;9.38;;
33190;SDS011;19554;42.652;23.364;2022-07-31T06:09:57;12.52;;;10.00;;
33190;SDS011;19554;42.652;23.364;2022-07-31T06:12:22;11.57;;;9.63;;
33190;SDS011;19554;42.652;23.364;2022-07-31T06:14:48;12.43;;;9.52;;
33190;SDS011;19554;42.652;23.364;2022-07-31T06:17:13;13.27;;;10.95;;
33190;SDS011;19554;42.652;23.364;2022-07-31T06:19:38;12.25;;;10.10;;
33190;SDS011;19554;42.652;23.364;2022-07-31T06:22:04;11.73;;;10.35;;
33190;SDS011;19554;42.652;23.364;2022-07-31T06:24:29;11.77;;;10.27;;
33190;SDS011;19554;42.652;23.364;2022-07-31T06:26:58;13.10;;;10.55;;
33190;SDS011;19554;42.652;23.364;2022-07-31T06:29:24;11.38;;;10.18;;
33190;SDS011;19554;42.652;23.364;2022-07-31T06:31:49;11.75;;;10.52;;
33190;SDS011;19554;42.652;23.364;2022-07-31T06:34:15;13.38;;;10.73;;
33190;SDS011;19554;42.652;23.364;2022-07-31T06:36:40;12.85;;;11.25;;
33190;SDS011;19554;42.652;23.364;2022-07-31T06:39:06;12.75;;;10.95;;
33190;SDS011;19554;42.652;23.364;2022-07-31T06:41:31;14.90;;;11.80;;
33190;SDS011;19554;42.652;23.364;2022-07-31T06:44:11;14.13;;;11.23;;
33190;SDS011;19554;42.652;23.364;2022-07-31T06:46:37;14.00;;;12.02;;
33190;SDS011;19554;42.652;23.364;2022-07-31T06:49:03;14.50;;;11.88;;
33190;SDS011;19554;42.652;23.364;2022-07-31T06:51:29;15.35;;;11.88;;
33190;SDS011;19554;42.652;23.364;2022-07-31T06:53:55;15.32;;;12.75;;
33190;SDS011;19554;42.652;23.364;2022-07-31T06:56:20;14.40;;;12.90;;
33190;SDS011;19554;42.652;23.364;2022-07-31T06:58:46;14.82;;;12.82;;
33190;SDS011;19554;42.652;23.364;2022-07-31T07:01:12;15.50;;;13.80;;
33190;SDS011;19554;42.652;23.364;2022-07-31T07:03:38;16.52;;;14.00;;
33190;SDS011;19554;42.652;23.364;2022-07-31T07:06:03;16.90;;;14.98;;
33190;SDS011;19554;42.652;23.364;2022-07-31T07:08:29;21.35;;;14.15;;
33190;SDS011;19554;42.652;23.364;2022-07-31T07:10:54;17.55;;;14.30;;
33190;SDS011;19554;42.652;23.364;2022-07-31T07:13:19;17.13;;;15.23;;
33190;SDS011;19554;42.652;23.364;2022-07-31T07:15:45;17.55;;;14.90;;
33190;SDS011;19554;42.652;23.364;2022-07-31T07:18:11;18.20;;;14.18;;
33190;SDS011;19554;42.652;23.364;2022-07-31T07:20:37;19.13;;;15.00;;
33190;SDS011;19554;42.652;23.364;2022-07-31T07:23:03;17.13;;;15.07;;
33190;SDS011;19554;42.652;23.364;2022-07-31T07:25:28;16.90;;;14.75;;
33190;SDS011;19554;42.652;23.364;2022-07-31T07:27:54;17.55;;;15.38;;
33190;SDS011;19554;42.652;23.364;2022-07-31T07:30:20;19.40;;;15.48;;
33190;SDS011;19554;42.652;23.364;2022-07-31T07:32:46;17.55;;;15.18;;
33190;SDS011;19554;42.652;23.364;2022-07-31T07:35:12;17.58;;;14.40;;
33190;SDS011;19554;42.652;23.364;2022-07-31T07:37:38;17.83;;;15.80;;
33190;SDS011;19554;42.652;23.364;2022-07-31T07:40:04;17.30;;;15.13;;
33190;SDS011;19554;42.652;23.364;2022-07-31T07:42:30;19.80;;;15.13;;
33190;SDS011;19554;42.652;23.364;2022-07-31T07:44:56;16.55;;;14.75;;
33190;SDS011;19554;42.652;23.364;2022-07-31T07:47:22;18.67;;;15.32;;
33190;SDS011;19554;42.652;23.364;2022-07-31T07:49:48;15.35;;;13.68;;
33190;SDS011;19554;42.652;23.364;2022-07-31T07:52:13;15.77;;;14.15;;
33190;SDS011;19554;42.652;23.364;2022-07-31T07:54:39;19.00;;;14.93;;
33190;SDS011;19554;42.652;23.364;2022-07-31T07:57:06;17.35;;;14.93;;
33190;SDS011;19554;42.652;23.364;2022-07-31T07:59:32;18.15;;;15.02;;
33190;SDS011;19554;42.652;23.364;2022-07-31T08:01:57;18.52;;;15.15;;
33190;SDS011;19554;42.652;23.364;2022-07-31T08:04:23;19.15;;;14.07;;
33190;SDS011;19554;42.652;23.364;2022-07-31T08:06:48;18.55;;;13.40;;
33190;SDS011;19554;42.652;23.364;2022-07-31T08:09:13;20.10;;;14.38;;
33190;SDS011;19554;42.652;23.364;2022-07-31T08:11:39;18.25;;;13.65;;
33190;SDS011;19554;42.652;23.364;2022-07-31T08:14:04;15.27;;;11.98;;
33190;SDS011;19554;42.652;23.364;2022-07-31T08:16:30;12.70;;;11.30;;
33190;SDS011;19554;42.652;23.364;2022-07-31T08:18:56;13.38;;;11.50;;
33190;SDS011;19554;42.652;23.364;2022-07-31T08:21:22;13.40;;;11.38;;
33190;SDS011;19554;42.652;23.364;2022-07-31T08:23:47;16.70;;;11.77;;
33190;SDS011;19554;42.652;23.364;2022-07-31T08:26:13;14.23;;;11.23;;
33190;SDS011;19554;42.652;23.364;2022-07-31T08:28:39;12.40;;;11.05;;
33190;SDS011;19554;42.652;23.364;2022-07-31T08:31:04;13.27;;;11.77;;
33190;SDS011;19554;42.652;23.364;2022-07-31T08:33:30;13.15;;;10.82;;
33190;SDS011;19554;42.652;23.364;2022-07-31T08:35:57;11.85;;;10.43;;
33190;SDS011;19554;42.652;23.364;2022-07-31T08:38:23;14.05;;;11.30;;
33190;SDS011;19554;42.652;23.364;2022-07-31T08:40:48;11.48;;;10.30;;
33190;SDS011;19554;42.652;23.364;2022-07-31T08:43:14;11.45;;;10.18;;
33190;SDS011;19554;42.652;23.364;2022-07-31T08:45:40;10.95;;;9.50;;
33190;SDS011;19554;42.652;23.364;2022-07-31T08:48:06;10.88;;;9.77;;
33190;SDS011;19554;42.652;23.364;2022-07-31T08:50:33;13.55;;;9.48;;
33190;SDS011;19554;42.652;23.364;2022-07-31T08:53:02;10.25;;;9.18;;
33190;SDS011;19554;42.652;23.364;2022-07-31T08:55:30;10.70;;;9.70;;
33190;SDS011;19554;42.652;23.364;2022-07-31T08:57:56;10.63;;;9.52;;
33190;SDS011;19554;42.652;23.364;2022-07-31T09:00:22;10.00;;;9.00;;
33190;SDS011;19554;42.652;23.364;2022-07-31T09:02:48;10.55;;;9.07;;
33190;SDS011;19554;42.652;23.364;2022-07-31T09:05:13;10.75;;;9.63;;
33190;SDS011;19554;42.652;23.364;2022-07-31T09:07:40;14.75;;;9.27;;
33190;SDS011;19554;42.652;23.364;2022-07-31T09:10:18;12.00;;;10.25;;
33190;SDS011;19554;42.652;23.364;2022-07-31T09:12:44;11.35;;;10.15;;
33190;SDS011;19554;42.652;23.364;2022-07-31T09:15:26;11.25;;;10.10;;
33190;SDS011;19554;42.652;23.364;2022-07-31T09:17:53;11.90;;;10.57;;
33190;SDS011;19554;42.652;23.364;2022-07-31T09:20:20;12.35;;;10.73;;
33190;SDS011;19554;42.652;23.364;2022-07-31T09:22:47;11.82;;;10.63;;
33190;SDS011;19554;42.652;23.364;2022-07-31T09:25:27;15.35;;;11.35;;
33190;SDS011;19554;42.652;23.364;2022-07-31T09:27:59;13.32;;;11.93;;
33190;SDS011;19554;42.652;23.364;2022-07-31T09:30:25;12.18;;;10.88;;
33190;SDS011;19554;42.652;23.364;2022-07-31T09:32:51;15.57;;;11.73;;
33190;SDS011;19554;42.652;23.364;2022-07-31T09:35:17;14.00;;;12.20;;
33190;SDS011;19554;42.652;23.364;2022-07-31T09:37:46;15.02;;;11.82;;
33190;SDS011;19554;42.652;23.364;2022-07-31T09:40:12;14.30;;;12.80;;
33190;SDS011;19554;42.652;23.364;2022-07-31T09:42:39;17.27;;;14.38;;
33190;SDS011;19554;42.652;23.364;2022-07-31T09:45:18;18.63;;;15.18;;
33190;SDS011;19554;42.652;23.364;2022-07-31T09:47:46;17.77;;;15.45;;
33190;SDS011;19554;42.652;23.364;2022-07-31T09:50:26;17.88;;;15.45;;
33190;SDS011;19554;42.652;23.364;2022-07-31T09:52:56;18.08;;;15.48;;
33190;SDS011;19554;42.652;23.364;2022-07-31T09:55:23;17.23;;;15.43;;
33190;SDS011;19554;42.652;23.364;2022-07-31T09:57:50;17.13;;;15.43;;
33190;SDS011;19554;42.652;23.364;2022-07-31T10:00:23;16.52;;;14.27;;
33190;SDS011;19554;42.652;23.364;2022-07-31T10:02:50;15.43;;;13.93;;
33190;SDS011;19554;42.652;23.364;2022-07-31T10:05:18;16.15;;;14.20;;
33190;SDS011;19554;42.652;23.364;2022-07-31T10:07:45;16.40;;;14.77;;
33190;SDS011;19554;42.652;23.364;2022-07-31T10:10:12;16.25;;;14.55;;
33190;SDS011;19554;42.652;23.364;2022-07-31T10:12:40;19.38;;;16.65;;
33190;SDS011;19554;42.652;23.364;2022-07-31T10:15:08;16.85;;;15.07;;
33190;SDS011;19554;42.652;23.364;2022-07-31T10:20:06;18.13;;;16.15;;
33190;SDS011;19554;42.652;23.364;2022-07-31T10:22:41;16.58;;;14.75;;
33190;SDS011;19554;42.652;23.364;2022-07-31T10:25:11;16.92;;;15.07;;
33190;SDS011;19554;42.652;23.364;2022-07-31T10:27:49;18.23;;;16.27;;
33190;SDS011;19554;42.652;23.364;2022-07-31T10:30:15;18.73;;;16.17;;
33190;SDS011;19554;42.652;23.364;2022-07-31T10:32:41;17.40;;;15.65;;
33190;SDS011;19554;42.652;23.364;2022-07-31T10:35:07;17.25;;;15.55;;
33190;SDS011;19554;42.652;23.364;2022-07-31T10:37:35;14.75;;;13.18;;
33190;SDS011;19554;42.652;23.364;2022-07-31T10:43:10;15.70;;;14.07;;
33190;SDS011;19554;42.652;23.364;2022-07-31T10:45:56;16.20;;;14.50;;
33190;SDS011;19554;42.652;23.364;2022-07-31T10:48:22;18.92;;;14.75;;
33190;SDS011;19554;42.652;23.364;2022-07-31T10:50:58;15.63;;;14.02;;
33190;SDS011;19554;42.652;23.364;2022-07-31T10:53:31;16.20;;;14.02;;
33190;SDS011;19554;42.652;23.364;2022-07-31T10:56:04;15.45;;;13.90;;
33190;SDS011;19554;42.652;23.364;2022-07-31T10:58:45;13.80;;;12.50;;
33190;SDS011;19554;42.652;23.364;2022-07-31T11:01:13;16.05;;;13.63;;
33190;SDS011;19554;42.652;23.364;2022-07-31T11:03:40;14.73;;;12.85;;
33190;SDS011;19554;42.652;23.364;2022-07-31T11:06:08;14.80;;;13.30;;
33190;SDS011;19554;42.652;23.364;2022-07-31T11:08:44;14.60;;;13.15;;
33190;SDS011;19554;42.652;23.364;2022-07-31T11:11:11;14.80;;;13.25;;
33190;SDS011;19554;42.652;23.364;2022-07-31T11:13:47;15.75;;;14.15;;
33190;SDS011;19554;42.652;23.364;2022-07-31T11:16:17;13.70;;;12.40;;
33190;SDS011;19554;42.652;23.364;2022-07-31T11:18:43;12.27;;;10.88;;
33190;SDS011;19554;42.652;23.364;2022-07-31T11:21:26;12.77;;;11.48;;
33190;SDS011;19554;42.652;23.364;2022-07-31T11:23:54;11.73;;;10.63;;
33190;SDS011;19554;42.652;23.364;2022-07-31T11:26:20;12.57;;;11.38;;
33190;SDS011;19554;42.652;23.364;2022-07-31T11:28:45;13.10;;;11.68;;
33190;SDS011;19554;42.652;23.364;2022-07-31T11:31:11;13.13;;;11.52;;
33190;SDS011;19554;42.652;23.364;2022-07-31T11:33:45;13.80;;;12.45;;
33190;SDS011;19554;42.652;23.364;2022-07-31T11:38:45;14.68;;;12.65;;
33190;SDS011;19554;42.652;23.364;2022-07-31T11:41:13;14.65;;;13.15;;
33190;SDS011;19554;42.652;23.364;2022-07-31T11:43:46;14.55;;;12.82;;
33190;SDS011;19554;42.652;23.364;2022-07-31T11:46:18;17.55;;;12.93;;
33190;SDS011;19554;42.652;23.364;2022-07-31T11:48:52;13.50;;;12.20;;
33190;SDS011;19554;42.652;23.364;2022-07-31T11:51:18;14.35;;;12.90;;
33190;SDS011;19554;42.652;23.364;2022-07-31T11:53:45;14.70;;;13.20;;
33190;SDS011;19554;42.652;23.364;2022-07-31T11:56:11;15.55;;;13.95;;
33190;SDS011;19554;42.652;23.364;2022-07-31T11:58:44;14.98;;;13.27;;
33190;SDS011;19554;42.652;23.364;2022-07-31T12:01:11;17.65;;;13.30;;
33190;SDS011;19554;42.652;23.364;2022-07-31T12:03:37;14.93;;;13.43;;
33190;SDS011;19554;42.652;23.364;2022-07-31T12:06:04;14.90;;;13.40;;
33190;SDS011;19554;42.652;23.364;2022-07-31T12:08:30;14.52;;;13.13;;
33190;SDS011;19554;42.652;23.364;2022-07-31T12:10:59;14.60;;;13.20;;
33190;SDS011;19554;42.652;23.364;2022-07-31T12:13:25;15.05;;;13.45;;
33190;SDS011;19554;42.652;23.364;2022-07-31T12:18:21;14.43;;;12.98;;
33190;SDS011;19554;42.652;23.364;2022-07-31T12:20:50;12.45;;;11.27;;
33190;SDS011;19554;42.652;23.364;2022-07-31T12:23:24;13.43;;;11.73;;
33190;SDS011;19554;42.652;23.364;2022-07-31T12:25:50;13.13;;;11.27;;
33190;SDS011;19554;42.652;23.364;2022-07-31T12:28:16;12.98;;;11.77;;
33190;SDS011;19554;42.652;23.364;2022-07-31T12:30:42;12.98;;;11.75;;
33190;SDS011;19554;42.652;23.364;2022-07-31T12:33:09;14.20;;;12.70;;
33190;SDS011;19554;42.652;23.364;2022-07-31T12:35:36;12.77;;;11.43;;
33190;SDS011;19554;42.652;23.364;2022-07-31T12:38:06;12.05;;;10.70;;
33190;SDS011;19554;42.652;23.364;2022-07-31T12:40:32;13.02;;;11.73;;
33190;SDS011;19554;42.652;23.364;2022-07-31T12:42:59;12.95;;;11.65;;
33190;SDS011;19554;42.652;23.364;2022-07-31T12:45:30;13.90;;;11.85;;
33190;SDS011;19554;42.652;23.364;2022-07-31T12:48:00;12.98;;;11.60;;
33190;SDS011;19554;42.652;23.364;2022-07-31T12:50:27;12.90;;;11.70;;
33190;SDS011;19554;42.652;23.364;2022-07-31T12:52:53;11.80;;;10.70;;
33190;SDS011;19554;42.652;23.364;2022-07-31T12:55:22;11.73;;;10.52;;
33190;SDS011;19554;42.652;23.364;2022-07-31T12:57:47;11.52;;;10.38;;
33190;SDS011;19554;42.652;23.364;2022-07-31T13:00:13;11.25;;;9.55;;
33190;SDS011;19554;42.652;23.364;2022-07-31T13:02:40;10.75;;;9.75;;
33190;SDS011;19554;42.652;23.364;2022-07-31T13:05:06;10.43;;;9.43;;
33190;SDS011;19554;42.652;23.364;2022-07-31T13:07:32;11.02;;;10.02;;
33190;SDS011;19554;42.652;23.364;2022-07-31T13:09:58;11.32;;;10.13;;
33190;SDS011;19554;42.652;23.364;2022-07-31T13:12:23;10.57;;;9.48;;
33190;SDS011;19554;42.652;23.364;2022-07-31T13:14:49;10.18;;;9.27;;
33190;SDS011;19554;42.652;23.364;2022-07-31T13:17:14;10.20;;;9.10;;
33190;SDS011;19554;42.652;23.364;2022-07-31T13:19:40;8.93;;;8.13;;
33190;SDS011;19554;42.652;23.364;2022-07-31T13:22:05;9.90;;;8.50;;
33190;SDS011;19554;42.652;23.364;2022-07-31T13:24:30;9.70;;;8.80;;
33190;SDS011;19554;42.652;23.364;2022-07-31T13:26:56;10.23;;;9.20;;
33190;SDS011;19554;42.652;23.364;2022-07-31T13:29:22;10.23;;;9.27;;
33190;SDS011;19554;42.652;23.364;2022-07-31T13:31:48;9.98;;;9.07;;
33190;SDS011;19554;42.652;23.364;2022-07-31T13:34:14;10.63;;;9.63;;
33190;SDS011;19554;42.652;23.364;2022-07-31T13:36:39;11.55;;;10.40;;
33190;SDS011;19554;42.652;23.364;2022-07-31T13:39:05;11.10;;;10.00;;
33190;SDS011;19554;42.652;23.364;2022-07-31T13:41:31;10.40;;;9.50;;
33190;SDS011;19554;42.652;23.364;2022-07-31T13:43:59;9.82;;;8.88;;
33190;SDS011;19554;42.652;23.364;2022-07-31T13:46:25;9.80;;;8.90;;
33190;SDS011;19554;42.652;23.364;2022-07-31T13:48:51;12.00;;;9.55;;
33190;SDS011;19554;42.652;23.364;2022-07-31T13:51:18;10.52;;;9.50;;
33190;SDS011;19554;42.652;23.364;2022-07-31T13:53:44;9.63;;;8.82;;
33190;SDS011;19554;42.652;23.364;2022-07-31T13:56:10;10.27;;;9.27;;
33190;SDS011;19554;42.652;23.364;2022-07-31T13:58:36;10.95;;;9.85;;
33190;SDS011;19554;42.652;23.364;2022-07-31T14:01:02;10.98;;;10.07;;
33190;SDS011;19554;42.652;23.364;2022-07-31T14:03:28;11.30;;;10.30;;
33190;SDS011;19554;42.652;23.364;2022-07-31T14:05:54;11.07;;;10.02;;
33190;SDS011;19554;42.652;23.364;2022-07-31T14:08:20;11.52;;;10.43;;
33190;SDS011;19554;42.652;23.364;2022-07-31T14:10:46;10.63;;;9.68;;
33190;SDS011;19554;42.652;23.364;2022-07-31T14:13:12;10.02;;;9.13;;
33190;SDS011;19554;42.652;23.364;2022-07-31T14:15:37;10.95;;;9.80;;
33190;SDS011;19554;42.652;23.364;2022-07-31T14:18:03;9.52;;;8.73;;
33190;SDS011;19554;42.652;23.364;2022-07-31T14:20:29;9.82;;;8.82;;
33190;SDS011;19554;42.652;23.364;2022-07-31T14:22:56;9.43;;;8.57;;
33190;SDS011;19554;42.652;23.364;2022-07-31T14:25:22;10.57;;;9.13;;
33190;SDS011;19554;42.652;23.364;2022-07-31T14:27:47;9.10;;;8.30;;
33190;SDS011;19554;42.652;23.364;2022-07-31T14:30:14;9.40;;;8.60;;
33190;SDS011;19554;42.652;23.364;2022-07-31T14:32:40;9.88;;;8.98;;